Ergonot — WDB8189 — position and weather

sailwx.info

Track history (hours):
 
Tides and Currents Weather Stations Pressure Air Temp Water Temp Dewpoint Dewpoint Depression Visibility Wind Speed Wind Dir Waves Ship Positions

Ergonot

Owner: Ergon Marine & Industrial Supply, Vicksburg, MS. More information available from US FCC via Universal Licensing System and Coast Guard Vessel Documentation Center.

Last reported at 2016-May-02 07:33 UTC. Time now 2016-May-02 08:15 UTC.
Position N 32°23' W 090°60'.

Length 56 m; draft 2 m.

Type: Towing. MMSI: 365905904.

Date/timePositionNaut miles runAvg speedWind from/ knotsBaromVisibWave heightAir tempDewpointWater temp
2016-May-02 07:33N 32°23' W 090°60'1110.1
2016-May-02 06:30N 32°33' W 091°06'  
2016-Apr-28 16:14N 32°36' W 091°08'4 5.7
2016-Apr-28 15:33N 32°33' W 091°06'5 5.4
2016-Apr-28 14:33N 32°27' W 091°05'6 5.8
2016-Apr-28 13:34N 32°24' W 090°60'4 4.1
2016-Apr-28 12:34N 32°21' W 090°57'4 3.7
2016-Apr-28 11:34N 32°22' W 090°53'1 0.9
2016-Apr-28 10:33N 32°23' W 090°53'0 0.0
2016-Apr-28 09:33N 32°23' W 090°53'0 0.0
2016-Apr-28 08:33N 32°23' W 090°53'0 0.0
2016-Apr-28 07:33N 32°23' W 090°53'0 0.0
2016-Apr-28 06:33N 32°23' W 090°53'0 0.0
2016-Apr-28 05:33N 32°23' W 090°53'0 0.0
2016-Apr-28 04:33N 32°23' W 090°53'0 0.0
2016-Apr-28 03:33N 32°23' W 090°53'0 0.0
2016-Apr-28 02:33N 32°23' W 090°53'0 0.0
2016-Apr-28 01:33N 32°23' W 090°53'0 0.0
2016-Apr-28 00:33N 32°23' W 090°53'1 1.0
2016-Apr-27 23:33N 32°23' W 090°54'0 0.0
2016-Apr-27 22:33N 32°23' W 090°54'0 0.0
2016-Apr-27 21:33N 32°23' W 090°54'0 0.0
2016-Apr-27 20:34N 32°23' W 090°54'0 0.0
2016-Apr-27 19:34N 32°23' W 090°54'0 0.0
2016-Apr-27 18:33N 32°23' W 090°54'0 0.0
2016-Apr-27 17:33N 32°23' W 090°54'0 0.0
2016-Apr-27 16:33N 32°23' W 090°54'3 2.5
2016-Apr-27 15:33N 32°21' W 090°53'1 1.2
2016-Apr-27 14:33N 32°20' W 090°54'1 0.5
2016-Apr-27 13:33N 32°20' W 090°54'3 3.1
2016-Apr-27 12:33N 32°23' W 090°54'1 1.0
2016-Apr-27 11:33N 32°23' W 090°53'0 0.0
2016-Apr-27 10:33N 32°23' W 090°53'0 0.0
2016-Apr-27 09:33N 32°23' W 090°53'0 0.0
2016-Apr-27 08:33N 32°23' W 090°53'0 0.0
2016-Apr-27 07:33N 32°23' W 090°53'0 0.0
2016-Apr-27 06:33N 32°23' W 090°53'0 0.0
2016-Apr-27 05:33N 32°23' W 090°53'0 0.0
2016-Apr-27 04:33N 32°23' W 090°53'0 0.0
2016-Apr-27 03:33N 32°23' W 090°53'0 0.0
2016-Apr-27 02:33N 32°23' W 090°53'0 0.0
2016-Apr-27 01:33N 32°23' W 090°53'0 0.0
2016-Apr-27 00:33N 32°23' W 090°53'0 0.0
2016-Apr-26 23:33N 32°23' W 090°53'0 0.0
2016-Apr-26 22:33N 32°23' W 090°53'0 0.0
2016-Apr-26 21:33N 32°23' W 090°53'0 0.0
2016-Apr-26 20:33N 32°23' W 090°53'0 0.0
2016-Apr-26 19:33N 32°23' W 090°53'0 0.0
2016-Apr-26 18:33N 32°23' W 090°53'0 0.0
2016-Apr-26 17:33N 32°23' W 090°53'0 0.0
2016-Apr-26 16:33N 32°23' W 090°53'0 0.0
2016-Apr-26 15:33N 32°23' W 090°53'0 0.0
2016-Apr-26 14:33N 32°23' W 090°53'0 0.0
2016-Apr-26 13:33N 32°23' W 090°53'0 0.0
2016-Apr-26 12:33N 32°23' W 090°53'0 0.0
2016-Apr-26 11:33N 32°23' W 090°53'0 0.0
2016-Apr-26 10:33N 32°23' W 090°53'0 0.0
2016-Apr-26 09:33N 32°23' W 090°53'4 4.3
2016-Apr-26 08:33N 32°21' W 090°57'1010.4
2016-Apr-26 07:33N 32°28' W 091°06'  
2016-Apr-22 16:21N 32°36' W 091°08'4 5.4
2016-Apr-22 15:32N 32°32' W 091°06'5 5.2
2016-Apr-22 14:34N 32°27' W 091°04'5 5.1
2016-Apr-22 13:34N 32°24' W 090°60'4 3.9
2016-Apr-22 12:34N 32°21' W 090°56'3 3.3
2016-Apr-22 11:34N 32°22' W 090°53'1 1.2
2016-Apr-22 10:33N 32°23' W 090°53'0 0.0
2016-Apr-22 09:33N 32°23' W 090°53'0 0.0
2016-Apr-22 08:33N 32°23' W 090°53'0 0.0
2016-Apr-22 07:33N 32°23' W 090°53'  
Track history (hours):
 
Tides and Currents Weather Stations Pressure Air Temp Water Temp Dewpoint Dewpoint Depression Visibility Wind Speed Wind Dir Waves Ship Positions

Ergonot

Owner: Ergon Marine & Industrial Supply, Vicksburg, MS. More information available from US FCC via Universal Licensing System and Coast Guard Vessel Documentation Center.

Last reported at 2016-May-02 07:33 UTC. Time now 2016-May-02 08:15 UTC.
Position N 32°23' W 090°60'.

Length 56 m; draft 2 m.

Type: Towing. MMSI: 365905904.

Date/timePositionNaut miles runAvg speedWind from/ knotsBaromVisibWave heightAir tempDewpointWater temp
2016-May-02 07:33N 32°23' W 090°60'1110.1
2016-May-02 06:30N 32°33' W 091°06'  
2016-Apr-28 16:14N 32°36' W 091°08'4 5.7
2016-Apr-28 15:33N 32°33' W 091°06'5 5.4
2016-Apr-28 14:33N 32°27' W 091°05'6 5.8
2016-Apr-28 13:34N 32°24' W 090°60'4 4.1
2016-Apr-28 12:34N 32°21' W 090°57'4 3.7
2016-Apr-28 11:34N 32°22' W 090°53'1 0.9
2016-Apr-28 10:33N 32°23' W 090°53'0 0.0
2016-Apr-28 09:33N 32°23' W 090°53'0 0.0
2016-Apr-28 08:33N 32°23' W 090°53'0 0.0
2016-Apr-28 07:33N 32°23' W 090°53'0 0.0
2016-Apr-28 06:33N 32°23' W 090°53'0 0.0
2016-Apr-28 05:33N 32°23' W 090°53'0 0.0
2016-Apr-28 04:33N 32°23' W 090°53'0 0.0
2016-Apr-28 03:33N 32°23' W 090°53'0 0.0
2016-Apr-28 02:33N 32°23' W 090°53'0 0.0
2016-Apr-28 01:33N 32°23' W 090°53'0 0.0
2016-Apr-28 00:33N 32°23' W 090°53'1 1.0
2016-Apr-27 23:33N 32°23' W 090°54'0 0.0
2016-Apr-27 22:33N 32°23' W 090°54'0 0.0
2016-Apr-27 21:33N 32°23' W 090°54'0 0.0
2016-Apr-27 20:34N 32°23' W 090°54'0 0.0
2016-Apr-27 19:34N 32°23' W 090°54'0 0.0
2016-Apr-27 18:33N 32°23' W 090°54'0 0.0
2016-Apr-27 17:33N 32°23' W 090°54'0 0.0
2016-Apr-27 16:33N 32°23' W 090°54'3 2.5
2016-Apr-27 15:33N 32°21' W 090°53'1 1.2
2016-Apr-27 14:33N 32°20' W 090°54'1 0.5
2016-Apr-27 13:33N 32°20' W 090°54'3 3.1
2016-Apr-27 12:33N 32°23' W 090°54'1 1.0
2016-Apr-27 11:33N 32°23' W 090°53'0 0.0
2016-Apr-27 10:33N 32°23' W 090°53'0 0.0
2016-Apr-27 09:33N 32°23' W 090°53'0 0.0
2016-Apr-27 08:33N 32°23' W 090°53'0 0.0
2016-Apr-27 07:33N 32°23' W 090°53'0 0.0
2016-Apr-27 06:33N 32°23' W 090°53'0 0.0
2016-Apr-27 05:33N 32°23' W 090°53'0 0.0
2016-Apr-27 04:33N 32°23' W 090°53'0 0.0
2016-Apr-27 03:33N 32°23' W 090°53'0 0.0
2016-Apr-27 02:33N 32°23' W 090°53'0 0.0
2016-Apr-27 01:33N 32°23' W 090°53'0 0.0
2016-Apr-27 00:33N 32°23' W 090°53'0 0.0
2016-Apr-26 23:33N 32°23' W 090°53'0 0.0
2016-Apr-26 22:33N 32°23' W 090°53'0 0.0
2016-Apr-26 21:33N 32°23' W 090°53'0 0.0
2016-Apr-26 20:33N 32°23' W 090°53'0 0.0
2016-Apr-26 19:33N 32°23' W 090°53'0 0.0
2016-Apr-26 18:33N 32°23' W 090°53'0 0.0
2016-Apr-26 17:33N 32°23' W 090°53'0 0.0
2016-Apr-26 16:33N 32°23' W 090°53'0 0.0
2016-Apr-26 15:33N 32°23' W 090°53'0 0.0
2016-Apr-26 14:33N 32°23' W 090°53'0 0.0
2016-Apr-26 13:33N 32°23' W 090°53'0 0.0
2016-Apr-26 12:33N 32°23' W 090°53'0 0.0
2016-Apr-26 11:33N 32°23' W 090°53'0 0.0
2016-Apr-26 10:33N 32°23' W 090°53'0 0.0
2016-Apr-26 09:33N 32°23' W 090°53'4 4.3
2016-Apr-26 08:33N 32°21' W 090°57'1010.4
2016-Apr-26 07:33N 32°28' W 091°06'  
2016-Apr-22 16:21N 32°36' W 091°08'4 5.4
2016-Apr-22 15:32N 32°32' W 091°06'5 5.2
2016-Apr-22 14:34N 32°27' W 091°04'5 5.1
2016-Apr-22 13:34N 32°24' W 090°60'4 3.9
2016-Apr-22 12:34N 32°21' W 090°56'3 3.3
2016-Apr-22 11:34N 32°22' W 090°53'1 1.2
2016-Apr-22 10:33N 32°23' W 090°53'0 0.0
2016-Apr-22 09:33N 32°23' W 090°53'0 0.0
2016-Apr-22 08:33N 32°23' W 090°53'0 0.0
2016-Apr-22 07:33N 32°23' W 090°53'  

Dump ship's entire track history